< Typhoon 198318 1983 Season Typhoon 198320 >
Typhoon 198319 (ORCHID)
General InformationTrack Information on Google MapsDetailed Wind InformationList of All Images || Disaster Info.ResourceGoogle EarthGE AnimationAtom FeedGeoJSON
Detalied Best Track (Time Zone = UTC)
Year Month Day Hour Lat. Long. Pressure (hPa) Wind (kt) Class Image Chart
1983 11 16 06 9.0 141.0 1004 0 2 Image Chart
1983 11 16 12 9.5 140.0 1004 0 2 Image Chart
1983 11 16 18 9.8 139.0 1004 0 2 Image Chart
1983 11 17 00 10.0 137.0 1004 0 2 Image Chart
1983 11 17 06 10.5 135.0 1002 0 2 Image Chart
1983 11 17 12 11.2 134.0 1002 0 2 Image Chart
1983 11 17 18 12.0 133.0 1000 0 2 Image Chart
1983 11 18 00 12.5 131.0 996 40 3 Image Chart
1983 11 18 06 13.0 130.0 994 45 3 Image Chart
1983 11 18 12 13.2 128.0 992 45 3 Image Chart
1983 11 18 18 13.0 127.2 990 45 3 Image Chart
1983 11 19 00 12.8 128.1 985 50 4 Image Chart
1983 11 19 06 12.7 127.8 985 50 4 Image Chart
1983 11 19 12 12.4 127.7 980 60 4 Image Chart
1983 11 19 18 12.2 127.5 980 60 4 Image Chart
1983 11 20 00 12.2 127.5 970 65 5 Image Chart
1983 11 20 06 12.6 127.2 960 70 5 Image Chart
1983 11 20 12 12.8 126.5 955 75 5 Image Chart
1983 11 20 18 13.2 126.4 950 85 5 Image Chart
1983 11 21 00 13.5 126.1 945 80 5 Image Chart
1983 11 21 06 13.9 125.7 945 80 5 Image Chart
1983 11 21 12 14.2 125.5 940 90 5 Image Chart
1983 11 21 18 14.6 125.5 940 90 5 Image Chart
1983 11 22 00 14.9 125.6 945 90 5 Image Chart
1983 11 22 06 15.3 125.7 945 80 5 Image Chart
1983 11 22 12 15.6 125.8 950 80 5 Image Chart
1983 11 22 18 16.0 126.1 950 75 5 Image Chart
1983 11 23 00 16.4 126.2 945 80 5 Image Chart
1983 11 23 06 16.7 126.3 940 80 5 Image Chart
1983 11 23 12 17.1 126.2 930 110 5 Image Chart
1983 11 23 18 17.2 126.0 930 110 5 Image Chart
1983 11 24 00 17.4 125.8 930 100 5 Image Chart
1983 11 24 06 17.4 125.4 940 100 5 Image Chart
1983 11 24 12 17.6 125.1 945 90 5 Image Chart
1983 11 24 18 17.7 124.9 960 80 5 Image Chart
1983 11 25 00 17.9 124.7 970 70 5 Image Chart
1983 11 25 06 18.1 124.7 980 65 5 Image Chart
1983 11 25 12 18.4 124.6 990 55 4 Image Chart
1983 11 25 18 18.3 124.8 992 50 4 Image Chart
1983 11 26 00 18.2 124.4 1005 0 2 Image Chart
1983 11 26 06 18.2 124.1 1006 0 2 Image Chart
1983 11 26 12 18.3 123.8 1008 0 2 Image Chart
Japan Meteorological Agency Best Track Data | Correction Date : 1992-10-21
< Typhoon 198318 1983 Season Typhoon 198320 >

Help